Time;durP1;ratioP1;P1;durP2;ratioP2;P2;SDS_P1;SDS_P2;PMS_P1;PMS_P2;Temp;Humidity;BMP_temperature;BMP_pressure;BME280_temperature;BME280_humidity;BME280_pressure;Samples;Min_cycle;Max_cycle;Signal;HPM_P1;HPM_P2
2023/12/19 00:02:09;;;;;;;31.40;19.25;;;7.00;99.90;;;;;;5061832;28;20793;-36
2023/12/19 00:04:36;;;;;;;31.17;19.15;;;7.00;99.90;;;;;;5060365;28;20039;-37
2023/12/19 00:07:01;;;;;;;27.73;18.60;;;7.00;99.90;;;;;;5061527;28;20563;-37
2023/12/19 00:09:27;;;;;;;27.45;18.30;;;7.00;99.90;;;;;;5062484;28;20177;-36
2023/12/19 00:11:52;;;;;;;29.83;19.88;;;7.00;99.90;;;;;;5061432;28;20032;-36
2023/12/19 00:14:18;;;;;;;27.92;17.83;;;7.00;99.90;;;;;;5061817;28;20020;-36
2023/12/19 00:16:44;;;;;;;29.27;18.38;;;6.90;99.90;;;;;;5062138;28;20032;-37
2023/12/19 00:19:09;;;;;;;28.75;18.20;;;7.00;99.90;;;;;;5060628;28;20073;-37
2023/12/19 00:21:35;;;;;;;24.38;16.48;;;7.00;99.90;;;;;;5061160;28;20657;-36
2023/12/19 00:24:00;;;;;;;26.45;16.55;;;7.00;99.90;;;;;;5059516;28;20068;-36
2023/12/19 00:26:26;;;;;;;24.73;16.23;;;7.00;99.90;;;;;;5061015;28;20129;-37
2023/12/19 00:28:52;;;;;;;23.98;15.93;;;7.00;99.90;;;;;;5059236;28;20028;-37
2023/12/19 00:31:22;;;;;;;25.15;16.70;;;7.00;99.90;;;;;;5061156;28;20046;-37
2023/12/19 00:33:47;;;;;;;24.63;15.88;;;7.00;99.90;;;;;;5062125;28;20036;-37
2023/12/19 00:36:20;;;;;;;25.95;17.08;;;7.00;99.90;;;;;;5060083;28;20020;-37
2023/12/19 00:38:45;;;;;;;;;;;7.00;99.90;;;;;;5061094;28;20040;-37
2023/12/19 00:41:11;;;;;;;31.63;18.67;;;7.00;99.90;;;;;;5060322;28;19908;-37
2023/12/19 00:43:37;;;;;;;26.73;17.50;;;7.00;99.90;;;;;;5060093;28;20098;-37
2023/12/19 00:46:02;;;;;;;31.70;19.75;;;7.00;99.90;;;;;;5059715;28;20032;-37
2023/12/19 00:48:28;;;;;;;31.45;19.05;;;7.00;99.90;;;;;;5060703;28;20032;-38
2023/12/19 00:50:53;;;;;;;27.95;18.25;;;7.00;99.90;;;;;;5060639;28;20861;-37
2023/12/19 00:53:19;;;;;;;26.75;17.92;;;7.00;99.90;;;;;;5060523;28;20692;-37
2023/12/19 00:55:45;;;;;;;22.55;15.20;;;7.00;99.90;;;;;;5061700;28;20020;-37
2023/12/19 00:58:10;;;;;;;25.15;16.10;;;7.00;99.90;;;;;;5059976;28;20436;-37
2023/12/19 01:00:36;;;;;;;26.33;17.38;;;7.10;99.90;;;;;;5059181;28;20028;-36
2023/12/19 01:03:01;;;;;;;27.13;16.77;;;7.10;99.90;;;;;;5059646;28;20031;-37
2023/12/19 01:05:27;;;;;;;28.38;17.17;;;7.10;99.90;;;;;;5059731;28;20036;-37
2023/12/19 01:07:53;;;;;;;26.48;17.25;;;7.10;99.90;;;;;;5059681;28;20423;-37
2023/12/19 01:10:18;;;;;;;29.45;19.77;;;7.10;99.90;;;;;;5059550;28;20791;-37
2023/12/19 01:12:44;;;;;;;27.40;18.35;;;7.10;99.90;;;;;;5059916;28;20028;-37
2023/12/19 01:15:09;;;;;;;32.10;20.17;;;7.10;99.90;;;;;;5059582;28;20032;-38
2023/12/19 01:17:35;;;;;;;32.45;19.75;;;7.10;99.90;;;;;;5059985;28;20029;-39
2023/12/19 01:20:00;;;;;;;29.08;18.15;;;7.10;99.90;;;;;;5060727;28;20040;-38
2023/12/19 01:22:26;;;;;;;24.02;16.10;;;7.10;99.90;;;;;;5060190;28;20029;-38
2023/12/19 01:24:51;;;;;;;26.95;17.85;;;7.10;99.90;;;;;;5060141;28;20040;-37
2023/12/19 01:27:17;;;;;;;28.30;17.25;;;7.20;99.90;;;;;;5060162;28;20081;-37
2023/12/19 01:29:43;;;;;;;29.83;18.65;;;7.10;99.90;;;;;;5060553;28;20029;-38
2023/12/19 01:32:08;;;;;;;28.40;18.33;;;7.10;99.90;;;;;;5059808;28;20749;-38
2023/12/19 01:34:34;;;;;;;27.45;18.33;;;7.20;99.90;;;;;;5060608;28;20116;-36
2023/12/19 01:36:59;;;;;;;30.08;18.80;;;7.20;99.90;;;;;;5059916;28;20078;-37
2023/12/19 01:39:26;;;;;;;32.25;20.23;;;7.20;99.90;;;;;;5059837;28;20028;-36
2023/12/19 01:41:51;;;;;;;30.65;19.25;;;7.20;99.90;;;;;;5058694;28;20024;-37
2023/12/19 01:44:18;;;;;;;28.40;17.77;;;7.20;99.90;;;;;;5059248;28;20198;-37
2023/12/19 01:46:44;;;;;;;29.00;18.98;;;7.20;99.90;;;;;;5059944;28;20020;-37
2023/12/19 01:49:10;;;;;;;27.77;17.85;;;7.20;99.90;;;;;;5058600;28;20043;-41
2023/12/19 01:51:36;;;;;;;32.83;20.25;;;7.20;99.90;;;;;;5059364;28;20032;-43
2023/12/19 01:54:04;;;;;;;30.75;20.13;;;7.20;99.90;;;;;;5058794;28;20025;-37
2023/12/19 01:56:32;;;;;;;28.35;18.80;;;7.20;99.90;;;;;;5058505;28;20056;-38
2023/12/19 01:59:02;;;;;;;29.63;19.30;;;7.20;99.90;;;;;;5058994;28;20028;-37
2023/12/19 02:01:28;;;;;;;31.27;21.13;;;7.20;99.90;;;;;;5059291;28;20029;-37
2023/12/19 02:03:54;;;;;;;32.08;19.38;;;7.20;99.90;;;;;;5058373;28;20064;-38
2023/12/19 02:06:22;;;;;;;28.08;18.10;;;7.20;99.90;;;;;;5059531;28;20056;-38
2023/12/19 02:08:48;;;;;;;27.88;18.20;;;7.20;99.90;;;;;;5059603;28;20513;-37
2023/12/19 02:11:14;;;;;;;25.73;16.48;;;7.20;99.90;;;;;;5058823;28;20043;-37
2023/12/19 02:13:45;;;;;;;24.23;16.50;;;7.30;99.90;;;;;;5059451;28;20028;-38
2023/12/19 02:16:11;;;;;;;23.88;16.25;;;7.20;99.90;;;;;;5059621;28;20112;-38
2023/12/19 02:18:36;;;;;;;25.58;16.50;;;7.30;99.90;;;;;;5058430;28;20730;-37
2023/12/19 02:21:04;;;;;;;24.50;15.45;;;7.30;99.90;;;;;;5059551;28;20020;-38
2023/12/19 02:23:29;;;;;;;23.38;14.95;;;7.30;99.90;;;;;;5063123;28;20360;-37
2023/12/19 02:25:55;;;;;;;24.35;15.73;;;7.30;99.90;;;;;;5062137;28;20471;-44
2023/12/19 02:28:21;;;;;;;26.95;16.55;;;7.30;99.90;;;;;;5063556;28;20020;-37
2023/12/19 02:30:47;;;;;;;27.50;16.45;;;7.30;99.90;;;;;;5062790;28;20032;-37
2023/12/19 02:33:13;;;;;;;24.38;15.82;;;7.30;99.90;;;;;;5062697;28;20108;-38
2023/12/19 02:35:38;;;;;;;24.48;16.67;;;7.30;99.90;;;;;;5063772;28;20636;-39
2023/12/19 02:38:04;;;;;;;26.65;16.90;;;7.30;99.90;;;;;;5062145;28;20028;-38
2023/12/19 02:40:30;;;;;;;25.55;16.35;;;7.40;99.90;;;;;;5062819;28;20025;-40
2023/12/19 02:42:56;;;;;;;21.52;14.75;;;7.30;99.90;;;;;;5063902;28;20638;-37
2023/12/19 02:45:22;;;;;;;26.10;17.45;;;7.40;99.90;;;;;;5063075;28;20114;-37
2023/12/19 02:47:47;;;;;;;25.05;15.98;;;7.40;99.90;;;;;;5063664;28;20028;-38
2023/12/19 02:50:13;;;;;;;25.27;17.02;;;7.40;99.90;;;;;;5062690;28;20032;-38
2023/12/19 02:52:39;;;;;;;24.40;15.43;;;7.40;99.90;;;;;;5062435;28;20157;-37
2023/12/19 02:55:09;;;;;;;23.45;15.98;;;7.40;99.90;;;;;;5063044;28;20435;-38
2023/12/19 02:57:34;;;;;;;25.23;15.57;;;7.40;99.90;;;;;;5063025;28;20119;-38
2023/12/19 03:00:05;;;;;;;22.80;15.20;;;7.40;99.90;;;;;;5062689;28;20016;-37
2023/12/19 03:02:31;;;;;;;24.45;16.75;;;7.40;99.90;;;;;;5062574;28;20074;-38
2023/12/19 03:04:57;;;;;;;27.40;17.13;;;7.40;99.90;;;;;;5062289;28;20032;-38
2023/12/19 03:07:23;;;;;;;24.75;15.52;;;7.40;99.90;;;;;;5061700;28;20131;-37
2023/12/19 03:09:48;;;;;;;23.90;16.02;;;7.40;99.90;;;;;;5062883;28;20028;-37
2023/12/19 03:12:14;;;;;;;24.48;15.50;;;7.40;99.90;;;;;;5063121;28;20205;-37
2023/12/19 03:14:40;;;;;;;23.60;14.27;;;7.40;99.90;;;;;;5061788;28;20024;-37
2023/12/19 03:17:06;;;;;;;21.65;15.02;;;7.40;99.90;;;;;;5062523;28;20486;-37
2023/12/19 03:19:36;;;;;;;23.38;15.32;;;7.50;99.90;;;;;;5062745;28;20028;-37
2023/12/19 03:22:05;;;;;;;25.10;15.35;;;7.40;99.90;;;;;;5061839;28;20475;-37
2023/12/19 03:24:31;;;;;;;28.00;16.88;;;7.50;99.90;;;;;;5062448;28;20159;-38
2023/12/19 03:26:56;;;;;;;23.73;15.18;;;7.50;99.90;;;;;;5061280;28;20509;-37
2023/12/19 03:29:22;;;;;;;21.35;14.23;;;7.50;99.90;;;;;;5062177;28;20120;-38
2023/12/19 03:31:49;;;;;;;29.08;17.85;;;7.50;99.90;;;;;;5062474;28;20025;-37
2023/12/19 03:34:14;;;;;;;26.73;17.13;;;7.50;99.90;;;;;;5040828;28;20116;-37
2023/12/19 03:36:40;;;;;;;26.65;17.48;;;7.50;99.90;;;;;;5055446;28;20021;-37
2023/12/19 03:39:06;;;;;;;23.40;16.05;;;7.50;99.90;;;;;;5061556;28;20034;-36
2023/12/19 03:41:31;;;;;;;22.17;14.50;;;7.50;99.90;;;;;;5061213;28;20103;-38
2023/12/19 03:43:57;;;;;;;24.33;15.63;;;7.50;99.90;;;;;;5061665;28;20051;-37
2023/12/19 03:46:22;;;;;;;27.55;16.95;;;7.50;99.90;;;;;;5061408;28;20022;-36
2023/12/19 03:48:48;;;;;;;24.27;15.23;;;7.60;99.90;;;;;;5061328;28;20032;-37
2023/12/19 03:51:14;;;;;;;26.55;16.88;;;7.50;99.90;;;;;;5060950;28;20086;-37
2023/12/19 03:53:40;;;;;;;21.95;15.43;;;7.60;99.90;;;;;;5061680;28;20147;-37
2023/12/19 03:56:06;;;;;;;23.85;14.85;;;7.60;99.90;;;;;;5060981;28;20360;-37
2023/12/19 03:58:32;;;;;;;22.63;15.63;;;7.60;99.90;;;;;;5061821;28;20012;-38
2023/12/19 04:00:59;;;;;;;23.40;15.77;;;7.60;99.90;;;;;;5061969;28;20031;-37
2023/12/19 04:03:26;;;;;;;21.65;15.68;;;7.60;99.90;;;;;;5060191;28;20040;-36
2023/12/19 04:05:51;;;;;;;21.60;15.10;;;7.60;99.90;;;;;;5061491;28;20021;-37
2023/12/19 04:08:17;;;;;;;20.05;14.57;;;7.60;99.90;;;;;;5061335;28;20032;-37
2023/12/19 04:10:42;;;;;;;19.95;13.45;;;7.60;99.90;;;;;;5060600;28;20066;-38
2023/12/19 04:13:08;;;;;;;19.20;14.27;;;7.60;99.90;;;;;;5061220;28;20020;-37
2023/12/19 04:15:33;;;;;;;24.27;15.82;;;7.60;99.90;;;;;;5061452;28;20514;-38
2023/12/19 04:18:02;;;;;;;22.98;16.23;;;7.60;99.90;;;;;;5060602;28;20025;-37
2023/12/19 04:20:27;;;;;;;24.02;16.33;;;7.60;99.90;;;;;;5061028;28;20111;-37
2023/12/19 04:22:53;;;;;;;20.48;14.55;;;7.50;99.90;;;;;;5060596;28;20590;-38
2023/12/19 04:25:18;;;;;;;21.52;14.88;;;7.50;99.90;;;;;;5060598;28;20027;-38
2023/12/19 04:27:44;;;;;;;17.60;13.45;;;7.50;99.90;;;;;;5061148;28;20578;-37
2023/12/19 04:30:10;;;;;;;18.67;13.65;;;7.50;99.90;;;;;;5060931;28;20591;-37
2023/12/19 04:32:36;;;;;;;18.52;12.90;;;7.50;99.90;;;;;;5061856;28;20426;-37
2023/12/19 04:35:04;;;;;;;20.23;13.75;;;7.50;99.90;;;;;;5061291;28;20020;-36
2023/12/19 04:37:29;;;;;;;18.80;13.10;;;7.60;99.90;;;;;;5060106;28;20090;-37
2023/12/19 04:39:55;;;;;;;15.68;11.50;;;7.60;99.90;;;;;;5059971;28;20036;-37
2023/12/19 04:42:20;;;;;;;15.75;11.15;;;7.50;99.90;;;;;;5060534;28;20032;-37
2023/12/19 04:44:47;;;;;;;15.68;12.25;;;7.60;99.90;;;;;;5059335;28;20543;-38
2023/12/19 04:47:13;;;;;;;17.00;13.27;;;7.60;99.90;;;;;;5060318;28;20028;-37
2023/12/19 04:49:39;;;;;;;18.70;12.32;;;7.60;99.90;;;;;;5060222;28;20504;-37
2023/12/19 04:52:05;;;;;;;16.98;12.07;;;7.60;99.90;;;;;;5059499;28;20684;-37
2023/12/19 04:54:30;;;;;;;18.73;12.35;;;7.60;99.90;;;;;;5060089;28;20040;-38
2023/12/19 04:56:56;;;;;;;15.20;11.80;;;7.60;99.90;;;;;;5060572;28;20039;-37
2023/12/19 04:59:22;;;;;;;16.83;11.82;;;7.60;99.90;;;;;;5060089;28;20025;-37
2023/12/19 05:01:47;;;;;;;14.80;11.70;;;7.50;99.90;;;;;;5059545;28;20032;-37
2023/12/19 05:04:13;;;;;;;13.85;11.05;;;7.60;99.90;;;;;;5059308;28;20082;-37
2023/12/19 05:06:38;;;;;;;13.95;11.02;;;7.60;99.90;;;;;;5059270;28;20659;-37
2023/12/19 05:09:04;;;;;;;12.57;10.35;;;7.50;99.90;;;;;;5059847;28;20028;-37
2023/12/19 05:11:30;;;;;;;13.57;10.27;;;7.50;99.90;;;;;;5059937;28;20028;-36
2023/12/19 05:13:55;;;;;;;13.63;10.23;;;7.50;99.90;;;;;;5058842;28;20051;-43
2023/12/19 05:16:21;;;;;;;15.07;10.70;;;7.60;99.90;;;;;;5060546;28;20458;-36
2023/12/19 05:18:47;;;;;;;14.65;10.35;;;7.60;99.90;;;;;;5059697;28;20039;-37
2023/12/19 05:21:13;;;;;;;13.80;10.73;;;7.60;99.90;;;;;;5059039;28;20020;-37
2023/12/19 05:23:39;;;;;;;15.93;11.15;;;7.60;99.90;;;;;;5059506;28;20056;-41
2023/12/19 05:26:06;;;;;;;12.82;10.38;;;7.60;99.90;;;;;;5059014;28;20021;-35
2023/12/19 05:28:35;;;;;;;13.25;10.60;;;7.60;99.90;;;;;;5059110;28;20032;-37
2023/12/19 05:31:01;;;;;;;13.90;10.77;;;7.60;99.90;;;;;;5059796;28;20071;-36
2023/12/19 05:33:27;;;;;;;15.15;11.45;;;7.60;99.90;;;;;;5059983;28;20111;-37
2023/12/19 05:35:53;;;;;;;13.93;10.75;;;7.60;99.90;;;;;;5059046;28;20107;-36
2023/12/19 05:38:20;;;;;;;16.50;11.75;;;7.60;99.90;;;;;;5059227;28;20576;-36
2023/12/19 05:40:46;;;;;;;13.68;11.13;;;7.60;99.90;;;;;;5059021;28;20051;-36
2023/12/19 05:43:15;;;;;;;13.60;10.90;;;7.60;99.90;;;;;;5059393;28;20062;-36
2023/12/19 05:45:41;;;;;;;16.58;12.43;;;7.70;99.90;;;;;;5059567;28;20036;-37
2023/12/19 05:48:07;;;;;;;14.32;10.80;;;7.70;99.90;;;;;;5058895;28;20630;-37
2023/12/19 05:50:33;;;;;;;13.73;10.90;;;7.70;99.90;;;;;;5059646;28;20052;-37
2023/12/19 05:52:59;;;;;;;16.63;13.00;;;7.70;99.90;;;;;;5059155;28;20545;-37
2023/12/19 05:55:26;;;;;;;16.67;12.43;;;7.80;99.90;;;;;;5058898;28;20029;-37
2023/12/19 05:57:51;;;;;;;15.68;11.45;;;7.80;99.90;;;;;;5058735;28;20030;-37
2023/12/19 06:00:17;;;;;;;13.82;11.32;;;7.80;99.90;;;;;;5059471;28;20025;-37
2023/12/19 06:02:50;;;;;;;17.05;12.18;;;7.80;99.90;;;;;;5058576;28;20028;-39
2023/12/19 06:05:16;;;;;;;20.13;14.70;;;7.80;99.90;;;;;;5059218;28;20043;-37
2023/12/19 06:07:42;;;;;;;18.58;13.77;;;7.80;99.90;;;;;;5059531;28;20645;-37
2023/12/19 06:10:09;;;;;;;19.50;13.68;;;7.80;99.90;;;;;;5058847;28;20479;-37
2023/12/19 06:12:35;;;;;;;19.23;13.98;;;7.90;99.90;;;;;;5059101;28;20482;-37
2023/12/19 06:15:02;;;;;;;20.33;13.57;;;7.80;99.90;;;;;;5058788;28;20032;-37
2023/12/19 06:17:34;;;;;;;18.05;13.45;;;7.80;99.90;;;;;;5057914;28;20118;-37
2023/12/19 06:19:59;;;;;;;17.80;13.75;;;7.90;99.90;;;;;;5059395;28;20036;-37
2023/12/19 06:22:25;;;;;;;17.92;13.65;;;7.90;99.90;;;;;;5058736;28;20036;-37
2023/12/19 06:24:51;;;;;;;15.85;12.13;;;7.90;99.90;;;;;;5058674;28;20090;-37
2023/12/19 06:27:16;;;;;;;17.63;12.95;;;7.90;99.90;;;;;;5059211;28;20107;-37
2023/12/19 06:29:43;;;;;;;16.60;12.70;;;7.90;99.90;;;;;;5058337;28;20110;-39
2023/12/19 06:32:11;;;;;;;17.33;13.70;;;7.90;99.90;;;;;;5058777;28;20020;-38
2023/12/19 06:34:37;;;;;;;16.95;12.82;;;7.90;99.90;;;;;;5059297;28;20028;-37
2023/12/19 06:37:09;;;;;;;16.85;13.27;;;7.90;99.90;;;;;;5058153;28;20619;-37
2023/12/19 06:39:36;;;;;;;16.63;13.27;;;7.80;99.90;;;;;;5071952;28;20028;-44
2023/12/19 06:42:02;;;;;;;17.20;13.65;;;7.90;99.90;;;;;;5071748;28;20263;-41
2023/12/19 06:44:27;;;;;;;17.88;13.07;;;7.90;99.90;;;;;;5058383;28;20422;-36
2023/12/19 06:46:53;;;;;;;16.88;13.05;;;7.90;99.90;;;;;;5059892;28;20039;-37
2023/12/19 06:49:20;;;;;;;17.92;13.50;;;7.90;99.90;;;;;;5058438;28;20025;-38
2023/12/19 06:51:46;;;;;;;16.85;12.60;;;7.90;99.90;;;;;;5058006;28;20135;-37
2023/12/19 06:54:11;;;;;;;14.95;11.18;;;7.90;99.90;;;;;;5056454;28;20032;-37
2023/12/19 06:56:37;;;;;;;16.35;12.57;;;8.00;99.90;;;;;;5058442;28;20029;-40
2023/12/19 06:59:05;;;;;;;17.90;12.98;;;7.90;99.90;;;;;;5057486;28;20028;-36
2023/12/19 07:01:30;;;;;;;17.08;13.30;;;7.90;99.90;;;;;;5058910;28;20107;-40
2023/12/19 07:03:56;;;;;;;16.15;12.50;;;8.00;99.90;;;;;;5058290;28;20105;-36
2023/12/19 07:06:22;;;;;;;18.42;14.23;;;7.90;99.90;;;;;;5057152;28;20024;-36
2023/12/19 07:08:47;;;;;;;15.55;12.35;;;7.90;99.90;;;;;;5060668;28;20648;-37
2023/12/19 07:11:19;;;;;;;18.75;13.73;;;7.90;99.90;;;;;;5061269;28;20820;-35
2023/12/19 07:13:45;;;;;;;18.48;13.48;;;8.00;99.90;;;;;;5061370;28;20063;-36
2023/12/19 07:16:14;;;;;;;19.65;15.07;;;8.00;99.90;;;;;;5060913;28;20107;-35
2023/12/19 07:18:40;;;;;;;21.42;15.60;;;8.00;99.90;;;;;;5061542;28;20111;-39
2023/12/19 07:21:07;;;;;;;20.23;14.90;;;8.00;99.90;;;;;;5060920;28;20127;-36
2023/12/19 07:23:32;;;;;;;20.40;14.93;;;8.00;99.90;;;;;;5061412;28;20114;-36
2023/12/19 07:25:58;;;;;;;23.17;16.92;;;8.00;99.90;;;;;;5061268;28;20480;-36
2023/12/19 07:28:25;;;;;;;21.90;15.93;;;8.00;99.90;;;;;;5061054;28;20028;-36
2023/12/19 07:30:51;;;;;;;18.73;14.30;;;8.00;99.90;;;;;;5050512;28;20028;-36
2023/12/19 07:33:16;;;;;;;19.00;14.10;;;8.00;99.90;;;;;;5060851;28;20055;-36
2023/12/19 07:35:42;;;;;;;18.67;13.77;;;8.00;99.90;;;;;;5060929;28;20858;-37
2023/12/19 07:38:08;;;;;;;18.63;14.73;;;8.10;99.90;;;;;;5061181;28;20081;-36
2023/12/19 07:40:35;;;;;;;24.92;17.40;;;8.00;99.90;;;;;;5059994;28;20020;-36
2023/12/19 07:43:01;;;;;;;24.45;17.13;;;8.10;99.90;;;;;;5060745;28;20023;-36
2023/12/19 07:45:27;;;;;;;24.70;17.88;;;8.00;99.90;;;;;;5060071;28;20046;-36
2023/12/19 07:47:54;;;;;;;25.60;18.30;;;8.00;99.90;;;;;;5059704;28;20081;-36
2023/12/19 07:50:20;;;;;;;25.45;19.65;;;8.10;99.90;;;;;;5060496;28;20046;-36
2023/12/19 07:52:45;;;;;;;30.95;21.42;;;8.10;99.90;;;;;;5060625;28;20113;-36
2023/12/19 07:55:11;;;;;;;25.70;18.58;;;8.10;99.90;;;;;;5059678;28;20044;-36
2023/12/19 07:57:40;;;;;;;27.35;20.10;;;8.10;99.90;;;;;;5061726;28;20384;-36
2023/12/19 08:00:08;;;;;;;23.63;18.17;;;8.10;99.90;;;;;;5060442;28;20566;-38
2023/12/19 08:02:35;;;;;;;27.05;18.75;;;8.10;99.90;;;;;;5059795;28;20036;-36
2023/12/19 08:05:01;;;;;;;30.55;19.67;;;8.10;99.90;;;;;;5060715;28;20105;-37
2023/12/19 08:07:27;;;;;;;26.50;18.77;;;8.10;99.90;;;;;;5060789;28;20111;-37
2023/12/19 08:09:55;;;;;;;25.27;19.33;;;8.20;99.90;;;;;;5060750;28;20605;-36
2023/12/19 08:12:24;;;;;;;29.58;20.52;;;8.20;99.90;;;;;;5061857;28;20057;-37
2023/12/19 08:14:49;;;;;;;27.75;19.52;;;8.20;99.90;;;;;;5061034;28;20613;-37
2023/12/19 08:17:15;;;;;;;27.52;18.75;;;8.20;99.90;;;;;;5059839;28;20120;-38
2023/12/19 08:19:41;;;;;;;26.55;19.45;;;8.20;99.90;;;;;;5060345;28;20032;-37
2023/12/19 08:22:06;;;;;;;27.17;19.50;;;8.20;99.90;;;;;;5060367;28;20453;-37
2023/12/19 08:24:35;;;;;;;27.02;17.73;;;8.20;99.90;;;;;;5061181;28;20041;-37
2023/12/19 08:27:00;;;;;;;23.15;18.00;;;8.30;99.90;;;;;;5060470;28;20081;-37
2023/12/19 08:29:29;;;;;;;28.63;18.73;;;8.30;99.90;;;;;;5060421;28;20032;-36
2023/12/19 08:31:55;;;;;;;25.02;18.63;;;8.30;99.90;;;;;;5061345;28;20051;-36
2023/12/19 08:34:20;;;;;;;26.95;19.00;;;8.30;99.90;;;;;;5061658;28;20028;-38
2023/12/19 08:36:46;;;;;;;27.17;19.02;;;8.30;99.90;;;;;;5060788;28;20634;-36
2023/12/19 08:39:11;;;;;;;27.25;18.70;;;8.30;99.90;;;;;;5060825;28;20024;-37
2023/12/19 08:41:37;;;;;;;25.90;19.58;;;8.30;99.90;;;;;;5060435;28;20282;-37
2023/12/19 08:44:03;;;;;;;27.38;17.90;;;8.30;99.90;;;;;;5059675;28;20667;-37
2023/12/19 08:46:29;;;;;;;23.35;17.42;;;8.30;99.90;;;;;;5060205;28;20248;-34
2023/12/19 08:48:54;;;;;;;23.40;17.30;;;8.30;99.90;;;;;;5060194;28;20034;-36
2023/12/19 08:51:21;;;;;;;23.17;16.88;;;8.40;99.90;;;;;;5059183;28;20034;-36
2023/12/19 08:53:46;;;;;;;23.90;17.48;;;8.40;99.90;;;;;;5060744;28;20033;-36
2023/12/19 08:56:12;;;;;;;20.08;15.70;;;8.40;99.90;;;;;;5059718;28;20040;-36
2023/12/19 08:58:37;;;;;;;22.45;16.63;;;8.40;99.90;;;;;;5059921;28;20033;-35
2023/12/19 09:01:03;;;;;;;20.95;16.13;;;8.40;99.90;;;;;;5059688;28;20028;-36
2023/12/19 09:03:29;;;;;;;21.55;16.00;;;8.40;99.90;;;;;;5055622;28;20028;-35
2023/12/19 09:05:54;;;;;;;21.40;16.85;;;8.40;99.90;;;;;;5070270;28;20024;-35
2023/12/19 09:08:21;;;;;;;21.17;16.58;;;8.50;99.90;;;;;;5059497;28;20020;-35
2023/12/19 09:10:47;;;;;;;18.40;15.07;;;8.50;99.90;;;;;;5060147;28;20032;-37
2023/12/19 09:13:12;;;;;;;20.02;14.93;;;8.50;99.90;;;;;;5059516;28;20695;-36
2023/12/19 09:15:38;;;;;;;17.35;14.57;;;8.50;99.90;;;;;;5060601;28;20044;-36
2023/12/19 09:18:07;;;;;;;17.90;14.25;;;8.50;99.90;;;;;;5059412;28;20024;-36
2023/12/19 09:20:32;;;;;;;17.83;14.32;;;8.50;99.90;;;;;;5059307;28;20033;-38
2023/12/19 09:22:58;;;;;;;15.80;12.88;;;8.50;99.90;;;;;;5058349;28;20917;-36
2023/12/19 09:25:23;;;;;;;16.30;13.70;;;8.50;99.90;;;;;;5059895;28;20515;-35
2023/12/19 09:27:49;;;;;;;15.35;12.30;;;8.50;99.90;;;;;;5059136;28;20024;-36
2023/12/19 09:30:18;;;;;;;13.77;12.23;;;8.50;99.90;;;;;;5059729;28;20032;-36
2023/12/19 09:32:43;;;;;;;15.40;12.48;;;8.50;99.90;;;;;;5057674;28;20021;-37
2023/12/19 09:35:13;;;;;;;17.35;13.55;;;8.50;99.90;;;;;;5060840;28;20021;-35
2023/12/19 09:37:39;;;;;;;18.67;13.38;;;8.50;99.90;;;;;;5059993;28;20135;-35
2023/12/19 09:40:13;;;;;;;14.93;12.57;;;8.50;99.90;;;;;;5059007;28;20033;-36
2023/12/19 09:42:41;;;;;;;15.30;12.50;;;8.50;99.90;;;;;;5070771;28;20668;-37
2023/12/19 09:45:07;;;;;;;13.88;11.55;;;8.50;99.90;;;;;;5057731;28;20067;-36
2023/12/19 09:47:39;;;;;;;14.10;11.75;;;8.50;99.90;;;;;;5056654;28;20037;-36
2023/12/19 09:50:11;;;;;;;13.73;11.63;;;8.50;99.90;;;;;;5056461;28;20111;-36
2023/12/19 09:52:37;;;;;;;13.95;11.68;;;8.50;99.90;;;;;;5057133;28;20690;-37
2023/12/19 09:55:04;;;;;;;12.93;11.50;;;8.50;99.90;;;;;;5057717;28;20035;-36
2023/12/19 09:57:33;;;;;;;12.45;10.30;;;8.50;99.90;;;;;;5059151;28;20055;-37
2023/12/19 10:00:07;;;;;;;13.15;9.88;;;8.50;99.90;;;;;;5058965;28;20021;-36
2023/12/19 10:02:32;;;;;;;13.50;10.10;;;8.50;99.90;;;;;;5058698;28;20562;-35
2023/12/19 10:04:58;;;;;;;13.20;10.30;;;8.50;99.90;;;;;;5058770;28;20102;-36
2023/12/19 10:07:24;;;;;;;13.10;11.20;;;8.50;99.90;;;;;;5059356;28;20063;-36
2023/12/19 10:09:56;;;;;;;12.73;11.00;;;8.50;99.90;;;;;;5058367;28;20025;-36
2023/12/19 10:12:27;;;;;;;12.80;10.73;;;8.60;99.90;;;;;;5059373;28;20036;-36
2023/12/19 10:15:13;;;;;;;11.20;9.35;;;8.50;99.90;;;;;;5058746;28;20051;-36
2023/12/19 10:17:39;;;;;;;11.45;9.43;;;8.60;99.90;;;;;;5057688;28;20148;-36
2023/12/19 10:20:10;;;;;;;10.70;9.52;;;8.50;99.90;;;;;;5058264;28;20325;-35
2023/12/19 10:22:38;;;;;;;11.65;10.20;;;8.60;99.90;;;;;;5058303;28;20035;-41
2023/12/19 10:25:04;;;;;;;12.55;10.60;;;8.60;99.90;;;;;;5059552;28;20032;-36
2023/12/19 10:27:30;;;;;;;13.25;9.65;;;8.60;99.90;;;;;;5059024;28;20060;-52
2023/12/19 10:30:18;;;;;;;13.27;9.43;;;8.60;99.90;;;;;;5059098;28;20052;-36
2023/12/19 10:32:46;;;;;;;13.20;10.98;;;8.60;99.90;;;;;;5059710;28;20430;-36
2023/12/19 10:35:12;;;;;;;12.05;9.93;;;8.60;99.90;;;;;;5059207;28;20025;-36
2023/12/19 10:37:37;;;;;;;9.98;8.70;;;8.60;99.90;;;;;;5058043;28;20592;-36
2023/12/19 10:40:10;;;;;;;10.80;9.40;;;8.60;99.90;;;;;;5057909;28;20132;-35
2023/12/19 10:42:36;;;;;;;;;;;8.60;99.90;;;;;;5059526;28;20024;-36
2023/12/19 10:45:04;;;;;;;11.13;9.73;;;8.60;99.90;;;;;;5062099;28;19935;-36
2023/12/19 10:47:29;;;;;;;10.93;9.20;;;8.60;99.90;;;;;;5062556;28;20032;-35
2023/12/19 10:49:55;;;;;;;10.98;9.73;;;8.60;99.90;;;;;;5061774;28;20821;-36
2023/12/19 10:52:25;;;;;;;10.60;9.45;;;8.60;99.90;;;;;;5061800;28;20151;-35
2023/12/19 10:54:59;;;;;;;10.75;9.65;;;8.60;99.90;;;;;;5062025;28;20035;-37
2023/12/19 10:57:30;;;;;;;12.00;9.90;;;8.60;99.90;;;;;;5062049;28;20466;-37
2023/12/19 11:00:17;;;;;;;11.60;9.93;;;8.70;99.90;;;;;;5062384;28;20030;-36
2023/12/19 11:02:51;;;;;;;10.13;9.02;;;8.70;99.90;;;;;;5061222;28;20028;-36
2023/12/19 11:05:38;;;;;;;10.90;9.70;;;8.70;99.90;;;;;;5061284;28;20067;-36
2023/12/19 11:08:08;;;;;;;13.13;9.88;;;8.70;99.90;;;;;;5050834;28;20055;-36
2023/12/19 11:10:39;;;;;;;12.30;10.45;;;8.70;99.90;;;;;;5062298;28;20029;-36
2023/12/19 11:13:04;;;;;;;11.85;10.07;;;8.70;99.90;;;;;;5061274;28;20032;-36
2023/12/19 11:15:36;;;;;;;11.45;10.23;;;8.70;99.90;;;;;;5061417;28;20027;-36
2023/12/19 11:18:20;;;;;;;11.27;9.63;;;8.70;99.90;;;;;;5058153;28;20415;-36
2023/12/19 11:20:53;;;;;;;9.50;8.48;;;8.70;99.90;;;;;;5062339;28;20320;-36
2023/12/19 11:23:18;;;;;;;;;;;8.70;99.90;;;;;;5061430;28;20046;-37
2023/12/19 11:26:24;;;;;;;10.32;9.10;;;8.70;99.90;;;;;;5060883;28;20564;-36
2023/12/19 11:28:50;;;;;;;10.32;8.93;;;8.60;99.90;;;;;;5060583;28;20033;-36
2023/12/19 11:31:32;;;;;;;9.77;8.77;;;8.60;99.90;;;;;;5060356;28;20063;-36
2023/12/19 11:34:22;;;;;;;10.50;9.35;;;8.60;99.90;;;;;;5049572;28;20128;-37
2023/12/19 11:36:58;;;;;;;10.82;9.10;;;8.60;99.90;;;;;;5062108;28;20028;-36
2023/12/19 11:39:25;;;;;;;10.63;9.45;;;8.60;99.90;;;;;;5061505;28;20028;-36
2023/12/19 11:41:51;;;;;;;9.75;8.32;;;8.70;99.90;;;;;;5062256;28;20839;-37
2023/12/19 11:44:39;;;;;;;10.43;8.70;;;8.60;99.90;;;;;;5061724;28;20077;-36
2023/12/19 11:47:15;;;;;;;9.80;7.68;;;8.70;99.90;;;;;;5060589;28;20013;-36
2023/12/19 11:49:41;;;;;;;8.52;7.65;;;8.70;99.90;;;;;;5061469;28;20487;-36
2023/12/19 11:52:07;;;;;;;9.40;8.27;;;8.70;99.90;;;;;;5061637;28;20098;-37
2023/12/19 11:54:34;;;;;;;9.00;8.10;;;8.70;99.90;;;;;;5059020;28;20104;-36
2023/12/19 11:57:01;;;;;;;8.48;7.57;;;8.70;99.90;;;;;;5061554;28;20741;-36
2023/12/19 11:59:47;;;;;;;8.10;7.30;;;8.80;99.90;;;;;;5061985;28;20132;-37
2023/12/19 12:02:25;;;;;;;10.32;7.88;;;8.80;99.90;;;;;;5062010;28;20020;-37
2023/12/19 12:05:12;;;;;;;8.55;7.70;;;8.80;99.90;;;;;;5061020;28;20044;-36
2023/12/19 12:07:48;;;;;;;8.82;7.93;;;8.80;99.90;;;;;;5059849;28;20020;-37
2023/12/19 12:10:16;;;;;;;9.48;8.02;;;8.80;99.90;;;;;;5050520;28;20119;-36
2023/12/19 12:12:42;;;;;;;7.97;6.90;;;8.80;99.90;;;;;;5060287;28;20205;-37
2023/12/19 12:15:28;;;;;;;7.82;6.85;;;8.80;99.90;;;;;;5059870;28;20169;-36
2023/12/19 12:18:03;;;;;;;8.32;7.43;;;8.80;99.90;;;;;;5052041;28;20526;-35
2023/12/19 12:20:33;;;;;;;8.65;7.75;;;8.80;99.90;;;;;;5061290;28;20205;-35
2023/12/19 12:23:02;;;;;;;8.75;7.85;;;8.80;99.90;;;;;;5059559;28;20032;-36
2023/12/19 12:25:28;;;;;;;6.97;6.28;;;8.80;99.90;;;;;;5060465;28;20616;-37
2023/12/19 12:28:17;;;;;;;6.97;6.20;;;8.80;99.90;;;;;;5060690;28;20066;-37
2023/12/19 12:30:43;;;;;;;7.35;6.65;;;8.80;99.90;;;;;;5059576;28;20020;-36
2023/12/19 12:33:09;;;;;;;6.63;5.93;;;8.80;99.90;;;;;;5061011;28;20120;-37
2023/12/19 12:35:38;;;;;;;8.48;5.88;;;8.80;99.90;;;;;;5059270;28;20017;-36
2023/12/19 12:38:16;;;;;;;6.75;6.07;;;8.80;99.90;;;;;;5060499;28;20029;-37
2023/12/19 12:40:54;;;;;;;7.20;6.50;;;8.80;99.90;;;;;;5059928;28;20406;-34
2023/12/19 12:43:43;;;;;;;6.75;6.07;;;8.80;99.90;;;;;;5058882;28;20654;-37